createdAt,value
2018-08-04T00:00:42.573Z,21.01
2018-08-04T00:03:11.262Z,21.03
2018-08-04T00:05:39.912Z,21.07
2018-08-04T00:08:08.589Z,21.04
2018-08-04T00:10:37.839Z,20.87
2018-08-04T00:13:07.150Z,20.77
2018-08-04T00:15:35.793Z,20.79
2018-08-04T00:18:04.424Z,20.75
2018-08-04T00:20:33.146Z,20.76
2018-08-04T00:23:01.845Z,20.76
2018-08-04T00:25:31.177Z,20.77
2018-08-04T00:27:59.802Z,20.84
2018-08-04T00:30:28.447Z,20.88
2018-08-04T00:32:56.989Z,20.89
2018-08-04T00:35:25.591Z,20.88
2018-08-04T00:37:54.274Z,20.90
2018-08-04T00:40:23.757Z,20.88
2018-08-04T00:42:52.434Z,20.89
2018-08-04T00:45:21.102Z,20.78
2018-08-04T00:47:50.234Z,20.66
2018-08-04T00:50:19.669Z,20.58
2018-08-04T00:52:48.293Z,20.61
2018-08-04T00:55:16.928Z,20.59
2018-08-04T00:57:45.564Z,20.55
2018-08-04T01:00:14.372Z,20.53
2018-08-04T01:02:43.037Z,20.49
2018-08-04T01:05:11.855Z,20.49
2018-08-04T01:07:40.564Z,20.49
2018-08-04T01:10:09.269Z,20.50
2018-08-04T01:12:38.042Z,20.38
2018-08-04T01:15:06.801Z,20.23
2018-08-04T01:17:36.082Z,20.28
2018-08-04T01:20:05.609Z,20.26
2018-08-04T01:22:36.073Z,20.26
2018-08-04T01:25:05.674Z,20.24
2018-08-04T01:27:34.513Z,20.26
2018-08-04T01:30:03.948Z,20.21
2018-08-04T01:32:32.737Z,20.23
2018-08-04T01:35:01.489Z,20.12
2018-08-04T01:37:30.407Z,20.08
2018-08-04T01:40:00.203Z,20.12
2018-08-04T01:42:28.825Z,20.04
2018-08-04T01:44:57.457Z,19.89
2018-08-04T01:47:26.126Z,19.83
2018-08-04T01:49:54.848Z,19.83
2018-08-04T01:52:23.668Z,19.84
2018-08-04T01:54:52.389Z,19.82
2018-08-04T01:57:21.020Z,19.78
2018-08-04T01:59:50.179Z,19.83
2018-08-04T02:02:19.063Z,19.70
2018-08-04T02:04:47.791Z,19.68
2018-08-04T02:07:16.443Z,19.74
2018-08-04T02:09:45.180Z,19.75
2018-08-04T02:12:14.018Z,19.61
2018-08-04T02:14:42.972Z,19.61
2018-08-04T02:17:11.558Z,19.68
2018-08-04T02:19:40.224Z,19.68
2018-08-04T02:22:08.947Z,19.64
2018-08-04T02:24:37.710Z,19.63
2018-08-04T02:27:06.353Z,19.62
2018-08-04T02:29:35.068Z,19.57
2018-08-04T02:32:03.818Z,19.46
2018-08-04T02:34:32.653Z,19.30
2018-08-04T02:37:01.287Z,19.29
2018-08-04T02:39:30.108Z,19.24
2018-08-04T02:41:58.849Z,19.20
2018-08-04T02:44:27.634Z,19.20
2018-08-04T02:46:56.271Z,19.21
2018-08-04T02:49:24.943Z,19.26
2018-08-04T02:51:53.633Z,19.16
2018-08-04T02:54:23.189Z,19.04
2018-08-04T02:56:51.789Z,19.09
2018-08-04T02:59:20.444Z,19.14
2018-08-04T03:01:49.108Z,19.21
2018-08-04T03:04:17.879Z,19.24
2018-08-04T03:06:46.523Z,19.25
2018-08-04T03:09:16.076Z,19.29
2018-08-04T03:11:44.729Z,19.25
2018-08-04T03:14:13.285Z,19.25
2018-08-04T03:16:41.980Z,19.16
2018-08-04T03:19:10.598Z,19.06
2018-08-04T03:21:39.732Z,18.96
2018-08-04T03:24:08.311Z,18.94
2018-08-04T03:26:36.871Z,18.96
2018-08-04T03:29:06.204Z,18.94
2018-08-04T03:31:35.652Z,18.94
2018-08-04T03:34:04.280Z,18.94
2018-08-04T03:36:33.094Z,18.93
2018-08-04T03:39:01.789Z,18.92
2018-08-04T03:41:30.355Z,18.87
2018-08-04T03:43:59.005Z,18.75
2018-08-04T03:46:29.248Z,18.75
2018-08-04T03:48:58.029Z,18.79
2018-08-04T03:51:26.917Z,18.79
2018-08-04T03:53:56.168Z,18.73
2018-08-04T03:56:25.862Z,18.68
2018-08-04T03:58:55.173Z,18.57
2018-08-04T04:01:23.784Z,18.60
2018-08-04T04:03:52.458Z,18.66
2018-08-04T04:06:21.064Z,18.70
2018-08-04T04:08:49.859Z,18.75
2018-08-04T04:11:18.495Z,18.77
2018-08-04T04:13:47.269Z,18.80
2018-08-04T04:16:16.035Z,18.80
2018-08-04T04:18:44.840Z,18.68
2018-08-04T04:21:13.442Z,18.61
2018-08-04T04:23:42.214Z,18.62
2018-08-04T04:26:10.934Z,18.64
2018-08-04T04:28:39.624Z,18.58
2018-08-04T04:31:09.069Z,18.66
2018-08-04T04:33:37.729Z,18.76
2018-08-04T04:36:06.379Z,18.88
2018-08-04T04:38:35.004Z,18.99
2018-08-04T04:41:03.649Z,19.10
2018-08-04T04:43:32.239Z,19.19
2018-08-04T04:46:00.813Z,19.29
2018-08-04T04:48:29.633Z,19.32
2018-08-04T04:50:58.975Z,19.42
2018-08-04T04:53:28.272Z,19.49
2018-08-04T04:55:57.246Z,19.63
2018-08-04T04:58:25.905Z,19.73
2018-08-04T05:00:54.672Z,19.87
2018-08-04T05:03:23.276Z,19.97
2018-08-04T05:05:52.068Z,20.13
2018-08-04T05:08:20.636Z,20.33
2018-08-04T05:10:49.326Z,20.66
2018-08-04T05:13:18.520Z,21.02
2018-08-04T05:15:47.131Z,21.47
2018-08-04T05:18:16.055Z,21.79
2018-08-04T05:20:45.276Z,22.20
2018-08-04T05:23:14.744Z,22.58
2018-08-04T05:25:43.484Z,23.03
2018-08-04T05:28:12.256Z,23.37
2018-08-04T05:30:41.064Z,23.69
2018-08-04T05:33:09.761Z,24.07
2018-08-04T05:35:38.354Z,24.38
2018-08-04T05:38:07.140Z,24.76
2018-08-04T05:40:36.491Z,24.82
2018-08-04T05:43:05.144Z,24.82
2018-08-04T05:45:33.892Z,25.36
2018-08-04T05:48:02.732Z,25.81
2018-08-04T05:50:31.395Z,26.03
2018-08-04T05:52:59.986Z,26.18
2018-08-04T05:55:28.867Z,26.21
2018-08-04T05:57:57.566Z,26.59
2018-08-04T06:00:26.276Z,27.19
2018-08-04T06:02:55.694Z,27.46
2018-08-04T06:05:24.871Z,27.86
2018-08-04T06:07:53.662Z,28.15
2018-08-04T06:10:22.236Z,28.02
2018-08-04T06:12:51.521Z,28.55
2018-08-04T06:15:20.132Z,28.92
2018-08-04T06:17:48.890Z,29.20
2018-08-04T06:20:18.396Z,29.37
2018-08-04T06:22:47.068Z,29.38
2018-08-04T06:25:16.598Z,29.39
2018-08-04T06:27:45.405Z,30.27
2018-08-04T06:30:14.089Z,30.35
2018-08-04T06:32:43.359Z,30.47
2018-08-04T06:35:12.429Z,30.50
2018-08-04T06:37:41.301Z,29.52
2018-08-04T06:40:09.986Z,28.30
2018-08-04T06:42:38.747Z,27.45
2018-08-04T06:45:07.435Z,26.57
2018-08-04T06:47:36.233Z,25.80
2018-08-04T06:50:05.037Z,25.66
2018-08-04T06:52:33.776Z,25.55
2018-08-04T06:55:02.400Z,25.45
2018-08-04T06:57:31.862Z,25.80
2018-08-04T07:00:01.020Z,27.21
2018-08-04T07:02:29.712Z,29.16
2018-08-04T07:04:59.934Z,30.64
2018-08-04T07:07:28.560Z,32.10
2018-08-04T07:09:57.366Z,33.15
2018-08-04T07:12:26.804Z,33.87
2018-08-04T07:14:55.534Z,34.48
2018-08-04T07:17:24.390Z,34.84
2018-08-04T07:19:53.731Z,35.27
2018-08-04T07:22:23.055Z,35.93
2018-08-04T07:24:51.671Z,35.97
2018-08-04T07:27:20.355Z,36.09
2018-08-04T07:29:49.657Z,35.88
2018-08-04T07:32:18.435Z,36.11
2018-08-04T07:34:47.012Z,37.03
2018-08-04T07:37:16.352Z,37.18
2018-08-04T07:39:45.121Z,37.42
2018-08-04T07:42:13.737Z,38.11
2018-08-04T07:44:42.547Z,38.35
2018-08-04T07:47:12.177Z,38.81
2018-08-04T07:49:40.815Z,39.42
2018-08-04T07:52:10.704Z,38.49
2018-08-04T07:54:39.346Z,39.34
2018-08-04T07:57:07.984Z,39.46
2018-08-04T07:59:37.490Z,40.38
2018-08-04T08:02:06.700Z,40.80
2018-08-04T08:04:35.355Z,40.90
2018-08-04T08:07:04.885Z,38.77
2018-08-04T08:09:33.474Z,39.74
2018-08-04T08:12:02.368Z,41.55
2018-08-04T08:14:30.991Z,42.34
2018-08-04T08:16:59.816Z,42.86
2018-08-04T08:19:28.645Z,42.66
2018-08-04T08:21:57.315Z,42.38
2018-08-04T08:24:25.957Z,43.54
2018-08-04T08:26:54.786Z,43.20
2018-08-04T08:29:23.421Z,42.45
2018-08-04T08:31:52.232Z,42.74
2018-08-04T08:34:20.926Z,43.40
2018-08-04T08:36:49.682Z,43.60
2018-08-04T08:39:18.377Z,44.27
2018-08-04T08:41:48.047Z,44.95
2018-08-04T08:44:16.838Z,45.02
2018-08-04T08:46:45.724Z,45.16
2018-08-04T08:49:14.541Z,45.40
2018-08-04T08:51:44.521Z,45.69
2018-08-04T08:54:13.420Z,45.19
2018-08-04T08:56:42.127Z,45.30
2018-08-04T08:59:10.889Z,46.05
2018-08-04T09:01:39.599Z,45.67
2018-08-04T09:04:08.536Z,46.47
2018-08-04T09:06:37.881Z,46.29
2018-08-04T09:09:08.631Z,46.79
2018-08-04T09:11:37.584Z,46.22
2018-08-04T09:14:07.042Z,46.76
2018-08-04T09:16:35.772Z,46.36
2018-08-04T09:19:04.585Z,46.40
2018-08-04T09:21:33.227Z,47.29
2018-08-04T09:24:01.920Z,47.69
2018-08-04T09:26:30.673Z,48.18
2018-08-04T09:28:59.484Z,47.69
2018-08-04T09:31:28.204Z,47.89
2018-08-04T09:33:56.932Z,48.03
2018-08-04T09:36:25.618Z,48.25
2018-08-04T09:38:54.431Z,49.07
2018-08-04T09:41:23.236Z,49.62
2018-08-04T09:43:51.976Z,48.78
2018-08-04T09:46:20.662Z,49.23
2018-08-04T09:48:49.326Z,49.83
2018-08-04T09:51:18.784Z,50.66
2018-08-04T09:53:47.486Z,51.23
2018-08-04T09:56:16.926Z,51.48
2018-08-04T09:58:46.313Z,51.40
2018-08-04T10:01:20.293Z,51.17
2018-08-04T10:03:48.944Z,50.60
2018-08-04T10:06:17.823Z,49.97
2018-08-04T10:08:47.568Z,50.06
2018-08-04T10:11:16.321Z,50.66
2018-08-04T10:13:45.767Z,50.66
2018-08-04T10:16:14.628Z,51.42
2018-08-04T10:18:43.527Z,51.56
2018-08-04T10:21:12.472Z,52.03
2018-08-04T10:23:41.211Z,51.33
2018-08-04T10:26:10.344Z,51.56
2018-08-04T10:28:38.892Z,51.60
2018-08-04T10:31:07.710Z,51.84
2018-08-04T10:33:36.556Z,52.76
2018-08-04T10:36:04.387Z,51.42
2018-08-04T10:38:32.726Z,51.90
2018-08-04T10:41:01.483Z,51.00
2018-08-04T10:43:29.292Z,50.55
2018-08-04T10:45:58.582Z,50.96
2018-08-04T10:48:26.623Z,52.21
2018-08-04T10:50:54.529Z,52.96
2018-08-04T10:53:22.358Z,53.76
2018-08-04T10:55:50.408Z,53.02
2018-08-04T10:58:19.710Z,53.58
2018-08-04T11:00:49.139Z,53.85
2018-08-04T11:03:18.085Z,53.59
2018-08-04T11:05:46.846Z,53.35
2018-08-04T11:08:15.584Z,52.77
2018-08-04T11:10:44.293Z,53.84
2018-08-04T11:13:13.057Z,55.18
2018-08-04T11:15:41.779Z,55.48
2018-08-04T11:18:10.576Z,54.18
2018-08-04T11:20:39.251Z,54.92
2018-08-04T11:23:08.013Z,55.49
2018-08-04T11:25:37.225Z,55.18
2018-08-04T11:28:06.512Z,54.57
2018-08-04T11:30:35.278Z,54.07
2018-08-04T11:33:03.989Z,53.11
2018-08-04T11:35:32.638Z,52.86
2018-08-04T11:38:01.425Z,54.20
2018-08-04T11:40:30.125Z,54.29
2018-08-04T11:42:58.918Z,55.04
2018-08-04T11:45:28.262Z,55.16
2018-08-04T11:47:57.051Z,54.99
2018-08-04T11:54:49.081Z,54.07
2018-08-04T11:57:18.006Z,53.10
2018-08-04T11:59:46.649Z,54.15
2018-08-04T12:02:15.344Z,54.13
2018-08-04T12:04:43.990Z,54.34
2018-08-04T12:07:13.333Z,53.91
2018-08-04T12:09:42.127Z,53.65
2018-08-04T12:12:10.804Z,54.03
2018-08-04T12:14:39.451Z,54.62
2018-08-04T12:17:09.051Z,54.10
2018-08-04T12:19:38.402Z,53.72
2018-08-04T12:22:07.473Z,54.69
2018-08-04T12:24:36.762Z,54.93
2018-08-04T12:27:05.513Z,54.89
2018-08-04T12:29:34.138Z,54.70
2018-08-04T12:32:03.043Z,55.07
2018-08-04T12:34:31.668Z,54.11
2018-08-04T12:37:00.276Z,54.12
2018-08-04T12:39:29.035Z,54.10
2018-08-04T12:41:58.483Z,54.55
2018-08-04T12:44:27.738Z,54.56
2018-08-04T12:46:56.739Z,54.38
2018-08-04T12:49:25.389Z,53.46
2018-08-04T12:51:54.280Z,53.68
2018-08-04T12:54:23.099Z,53.24
2018-08-04T12:56:51.679Z,53.68
2018-08-04T12:59:20.719Z,53.54
2018-08-04T13:01:49.316Z,53.08
2018-08-04T13:04:18.210Z,52.51
2018-08-04T13:06:46.840Z,51.73
2018-08-04T13:09:15.527Z,50.53
2018-08-04T13:11:44.132Z,50.27
2018-08-04T13:14:13.372Z,49.74
2018-08-04T13:16:42.166Z,49.47
2018-08-04T13:19:11.360Z,49.60
2018-08-04T13:21:39.997Z,49.50
2018-08-04T13:24:08.861Z,49.25
2018-08-04T13:26:37.471Z,49.56
2018-08-04T13:29:06.258Z,49.62
2018-08-04T13:31:34.910Z,49.16
2018-08-04T13:34:03.743Z,49.13
2018-08-04T13:36:32.385Z,48.83
2018-08-04T13:39:01.324Z,48.79
2018-08-04T13:41:30.537Z,47.65
2018-08-04T13:43:59.222Z,47.77
2018-08-04T13:46:28.902Z,46.65
2018-08-04T13:48:57.609Z,45.38
2018-08-04T13:51:26.966Z,44.48
2018-08-04T13:53:55.649Z,44.73
2018-08-04T13:56:24.983Z,43.99
2018-08-04T13:58:54.425Z,43.58
2018-08-04T14:01:23.836Z,43.40
2018-08-04T14:03:52.738Z,43.64
2018-08-04T14:06:22.188Z,43.75
2018-08-04T14:08:51.214Z,43.53
2018-08-04T14:11:20.134Z,43.49
2018-08-04T14:13:48.778Z,43.24
2018-08-04T14:16:17.454Z,42.76
2018-08-04T14:18:46.322Z,42.53
2018-08-04T14:21:15.599Z,42.01
2018-08-04T14:23:44.268Z,41.42
2018-08-04T14:26:12.969Z,41.37
2018-08-04T14:28:41.777Z,41.21
2018-08-04T14:31:10.426Z,41.05
2018-08-04T14:33:39.741Z,40.96
2018-08-04T14:36:08.570Z,40.78
2018-08-04T14:38:37.283Z,40.64
2018-08-04T14:41:06.223Z,40.34
2018-08-04T14:43:34.930Z,40.03
2018-08-04T14:46:03.872Z,40.06
2018-08-04T14:48:33.211Z,39.60
2018-08-04T14:51:01.854Z,39.34
2018-08-04T14:53:31.007Z,39.43
2018-08-04T14:55:59.637Z,39.49
2018-08-04T14:58:28.303Z,39.31
2018-08-04T15:00:57.159Z,39.25
2018-08-04T15:03:25.850Z,38.99
2018-08-04T15:05:54.745Z,38.83
2018-08-04T15:08:23.419Z,38.72
2018-08-04T15:10:52.133Z,38.58
2018-08-04T15:13:21.409Z,38.50
2018-08-04T15:15:50.276Z,38.36
2018-08-04T15:18:18.889Z,38.30
2018-08-04T15:20:48.139Z,38.14
2018-08-04T15:23:16.923Z,38.13
2018-08-04T15:25:45.568Z,38.08
2018-08-04T15:28:15.127Z,37.79
2018-08-04T15:30:44.014Z,37.18
2018-08-04T15:33:13.394Z,37.45
2018-08-04T15:35:42.103Z,37.36
2018-08-04T15:38:10.825Z,37.38
2018-08-04T15:40:39.463Z,37.37
2018-08-04T15:43:08.814Z,37.40
2018-08-04T15:45:37.453Z,37.35
2018-08-04T15:48:06.293Z,37.21
2018-08-04T15:50:34.880Z,36.96
2018-08-04T15:53:04.240Z,36.88
2018-08-04T15:55:32.890Z,36.74
2018-08-04T15:58:02.423Z,36.67
2018-08-04T16:00:31.785Z,36.59
2018-08-04T16:03:00.528Z,36.56
2018-08-04T16:05:30.000Z,36.40
2018-08-04T16:07:59.324Z,36.29
2018-08-04T16:10:28.064Z,36.18
2018-08-04T16:12:56.738Z,36.09
2018-08-04T16:15:25.962Z,36.05
2018-08-04T16:17:54.677Z,36.07
2018-08-04T16:20:23.469Z,36.12
2018-08-04T16:22:52.254Z,36.07
2018-08-04T16:25:20.918Z,36.01
2018-08-04T16:27:50.344Z,35.91
2018-08-04T16:30:19.319Z,35.88
2018-08-04T16:32:48.026Z,35.78
2018-08-04T16:35:16.709Z,35.66
2018-08-04T16:37:46.134Z,35.54
2018-08-04T16:40:14.863Z,35.45
2018-08-04T16:42:43.538Z,35.25
2018-08-04T16:45:12.998Z,35.13
2018-08-04T16:47:41.684Z,35.13
2018-08-04T16:50:10.277Z,35.07
2018-08-04T16:52:39.060Z,35.07
2018-08-04T16:55:08.464Z,35.16
2018-08-04T16:57:37.030Z,35.22
2018-08-04T17:00:05.799Z,35.21
2018-08-04T17:02:35.004Z,35.27
2018-08-04T17:05:04.621Z,35.23
2018-08-04T17:07:34.000Z,35.21
2018-08-04T17:10:02.650Z,35.10
2018-08-04T17:12:31.353Z,35.00
2018-08-04T17:15:00.655Z,34.84
2018-08-04T17:17:29.575Z,34.72
2018-08-04T17:19:58.398Z,34.68
2018-08-04T17:22:27.113Z,34.62
2018-08-04T17:24:56.629Z,34.52
2018-08-04T17:27:25.682Z,34.42
2018-08-04T17:29:54.985Z,34.30
2018-08-04T17:32:23.715Z,34.20
2018-08-04T17:34:52.508Z,34.07
2018-08-04T17:37:21.189Z,33.94
2018-08-04T17:39:49.789Z,33.91
2018-08-04T17:42:18.608Z,33.76
2018-08-04T17:44:47.249Z,33.71
2018-08-04T17:47:17.058Z,33.63
2018-08-04T17:49:45.708Z,33.57
2018-08-04T17:52:14.314Z,33.49
2018-08-04T17:54:43.155Z,33.41
2018-08-04T17:57:12.817Z,33.32
2018-08-04T17:59:41.575Z,33.21
2018-08-04T18:02:10.290Z,33.14
2018-08-04T18:04:39.017Z,33.07
2018-08-04T18:07:08.356Z,32.98
2018-08-04T18:09:37.075Z,32.92
2018-08-04T18:12:05.746Z,32.71
2018-08-04T18:14:34.500Z,32.47
2018-08-04T18:17:03.215Z,32.18
2018-08-04T18:19:32.488Z,31.82
2018-08-04T18:22:01.270Z,31.67
2018-08-04T18:24:29.935Z,31.52
2018-08-04T18:26:59.197Z,31.24
2018-08-04T18:29:27.931Z,31.04
2018-08-04T18:31:56.586Z,30.71
2018-08-04T18:34:25.436Z,30.53
2018-08-04T18:36:54.039Z,30.15
2018-08-04T18:39:22.729Z,30.04
2018-08-04T18:41:51.416Z,29.85
2018-08-04T18:44:20.743Z,29.75
2018-08-04T18:46:49.405Z,29.68
2018-08-04T18:49:18.248Z,29.79
2018-08-04T18:51:47.043Z,29.80
2018-08-04T18:54:15.703Z,29.77
2018-08-04T18:56:45.036Z,29.72
2018-08-04T18:59:14.614Z,29.57
2018-08-04T19:01:43.308Z,29.38
2018-08-04T19:04:12.845Z,29.13
2018-08-04T19:06:41.939Z,28.89
2018-08-04T19:09:11.645Z,28.73
2018-08-04T19:11:41.276Z,28.65
2018-08-04T19:14:10.773Z,28.54
2018-08-04T19:16:39.577Z,28.19
2018-08-04T19:19:09.216Z,27.94
2018-08-04T19:21:38.096Z,27.98
2018-08-04T19:24:07.572Z,27.96
2018-08-04T19:26:36.406Z,27.84
2018-08-04T19:29:05.802Z,27.68
2018-08-04T19:31:35.060Z,27.47
2018-08-04T19:34:03.801Z,27.39
2018-08-04T19:36:32.721Z,27.34
2018-08-04T19:39:01.401Z,27.08
2018-08-04T19:42:33.470Z,26.96
2018-08-04T19:45:02.278Z,26.78
2018-08-04T19:47:30.977Z,26.65
2018-08-04T19:50:00.081Z,26.68
2018-08-04T19:52:28.925Z,26.63
2018-08-04T19:54:57.940Z,26.53
2018-08-04T19:57:27.410Z,26.33
2018-08-04T19:59:56.565Z,26.14
2018-08-04T20:02:25.676Z,26.04
2018-08-04T20:04:54.395Z,26.01
2018-08-04T20:07:23.140Z,26.00
2018-08-04T20:09:51.860Z,25.98
2018-08-04T20:12:20.740Z,25.89
2018-08-04T20:14:50.460Z,25.84
2018-08-04T20:17:20.250Z,25.73
2018-08-04T20:19:48.975Z,25.65
2018-08-04T20:22:18.411Z,25.53
2018-08-04T20:24:47.596Z,25.44
2018-08-04T20:27:16.531Z,25.33
2018-08-04T20:29:46.281Z,25.21
2018-08-04T20:32:15.150Z,25.16
2018-08-04T20:34:44.044Z,25.03
2018-08-04T20:37:13.330Z,24.97
2018-08-04T20:39:42.593Z,24.97
2018-08-04T20:42:11.771Z,24.89
2018-08-04T20:44:40.749Z,24.68
2018-08-04T20:47:09.614Z,24.52
2018-08-04T20:49:38.462Z,24.49
2018-08-04T20:52:07.526Z,24.52
2018-08-04T20:54:36.668Z,24.53
2018-08-04T20:57:06.135Z,24.58
2018-08-04T20:59:35.285Z,24.52
2018-08-04T21:02:05.597Z,24.44
2018-08-04T21:04:35.682Z,24.46
2018-08-04T21:07:05.502Z,24.35
2018-08-04T21:09:34.271Z,24.09
2018-08-04T21:12:03.125Z,23.87
2018-08-04T21:14:31.766Z,23.96
2018-08-04T21:17:00.976Z,24.05
2018-08-04T21:19:29.760Z,24.07
2018-08-04T21:21:58.418Z,24.03
2018-08-04T21:24:27.579Z,23.97
2018-08-04T21:26:56.746Z,23.92
2018-08-04T21:29:25.590Z,23.96
2018-08-04T21:31:55.123Z,23.92
2018-08-04T21:34:23.828Z,23.90
2018-08-04T21:36:52.710Z,23.76
2018-08-04T21:39:21.612Z,23.61
2018-08-04T21:41:50.223Z,23.53
2018-08-04T21:44:18.977Z,23.48
2018-08-04T21:46:50.610Z,23.48
2018-08-04T21:49:19.754Z,23.51
2018-08-04T21:51:49.628Z,23.52
2018-08-04T21:54:19.913Z,23.45
2018-08-04T21:56:48.175Z,23.47
2018-08-04T21:59:16.761Z,23.40
2018-08-04T22:01:50.712Z,23.37
2018-08-04T22:04:19.930Z,23.32
2018-08-04T22:07:59.159Z,23.34
2018-08-04T22:10:28.013Z,23.33
2018-08-04T22:12:57.018Z,23.35
2018-08-04T22:15:25.942Z,23.36
2018-08-04T22:17:54.565Z,23.33
2018-08-04T22:20:23.886Z,23.29
2018-08-04T22:22:52.932Z,23.18
2018-08-04T22:25:22.961Z,23.09
2018-08-04T22:27:51.868Z,23.04
2018-08-04T22:30:21.450Z,23.08
2018-08-04T22:32:50.579Z,23.08
2018-08-04T22:35:19.792Z,22.84
2018-08-04T22:37:48.487Z,22.70
2018-08-04T22:40:17.946Z,22.67
2018-08-04T22:42:46.624Z,22.68
2018-08-04T22:45:58.862Z,22.70
2018-08-04T22:48:27.604Z,22.67
2018-08-04T22:50:56.264Z,22.68
2018-08-04T22:53:24.862Z,22.59
2018-08-04T22:55:53.631Z,22.44
2018-08-04T22:58:23.071Z,22.26
2018-08-04T23:00:52.675Z,22.17
2018-08-04T23:03:21.242Z,22.16
2018-08-04T23:05:50.164Z,22.14
2018-08-04T23:08:19.417Z,22.19
2018-08-04T23:10:48.057Z,22.20
2018-08-04T23:13:17.166Z,22.22
2018-08-04T23:15:46.362Z,22.29
2018-08-04T23:18:15.021Z,22.34
2018-08-04T23:20:43.820Z,22.34
2018-08-04T23:23:13.669Z,22.29
2018-08-04T23:25:42.299Z,22.27
2018-08-04T23:28:11.292Z,22.32
2018-08-04T23:30:39.886Z,22.26
2018-08-04T23:33:08.516Z,22.10
2018-08-04T23:35:37.252Z,22.04
2018-08-04T23:38:06.716Z,22.03
2018-08-04T23:40:35.300Z,22.00
2018-08-04T23:43:03.931Z,22.01
2018-08-04T23:45:33.465Z,21.93
2018-08-04T23:48:02.114Z,21.84
2018-08-04T23:50:30.737Z,21.85
2018-08-04T23:52:59.394Z,21.76
2018-08-04T23:55:28.090Z,21.61
2018-08-04T23:57:56.690Z,21.54
